Time;durP1;ratioP1;P1;durP2;ratioP2;P2;SDS_P1;SDS_P2;PMS_P1;PMS_P2;Temp;Humidity;BMP_temperature;BMP_pressure;BME280_temperature;BME280_humidity;BME280_pressure;Samples;Min_cycle;Max_cycle;Signal;HPM_P1;HPM_P2
2022/11/16 00:01:01;;;;;;;12.55;11.35;;;11.00;99.90;;;;;;5110423;27;20015;-80
2022/11/16 00:03:27;;;;;;;12.68;11.48;;;11.00;99.90;;;;;;5126455;27;20091;-81
2022/11/16 00:06:12;;;;;;;13.77;12.48;;;10.90;99.90;;;;;;5111049;27;20126;-81
2022/11/16 00:08:40;;;;;;;14.15;12.75;;;11.00;99.90;;;;;;5118213;27;20091;-81
2022/11/16 00:11:16;;;;;;;15.25;13.75;;;11.00;99.90;;;;;;5125220;27;20196;-80
2022/11/16 00:13:43;;;;;;;14.63;13.27;;;11.00;99.90;;;;;;5118324;27;20056;-81
2022/11/16 00:16:15;;;;;;;15.98;14.48;;;11.00;99.90;;;;;;5120602;27;20181;-81
2022/11/16 00:18:41;;;;;;;15.90;14.38;;;11.00;99.90;;;;;;5131257;27;20481;-80
2022/11/16 00:21:07;;;;;;;16.00;14.50;;;10.90;99.90;;;;;;5118016;27;20056;-80
2022/11/16 00:23:36;;;;;;;16.98;15.48;;;11.00;99.90;;;;;;5135080;27;20104;-80
2022/11/16 00:26:07;;;;;;;17.43;15.83;;;11.00;99.90;;;;;;5091645;27;20129;-82
2022/11/16 00:28:35;;;;;;;17.48;15.88;;;11.00;99.90;;;;;;5123815;27;20300;-81
2022/11/16 00:31:04;;;;;;;17.25;15.65;;;11.00;99.90;;;;;;5100827;27;20142;-81
2022/11/16 00:33:30;;;;;;;17.05;15.45;;;10.90;99.90;;;;;;5125163;27;20047;-81
2022/11/16 00:36:05;;;;;;;18.05;16.35;;;11.00;99.90;;;;;;5098238;27;20049;-80
2022/11/16 00:38:31;;;;;;;16.75;15.15;;;11.00;99.90;;;;;;5109802;27;20120;-81
2022/11/16 00:40:57;;;;;;;17.80;16.00;;;11.00;99.90;;;;;;5099942;27;20664;-80
2022/11/16 00:43:22;;;;;;;18.30;16.60;;;11.00;99.90;;;;;;5133976;27;20091;-80
2022/11/16 00:45:52;;;;;;;18.58;16.98;;;11.00;99.90;;;;;;5118128;27;20154;-81
2022/11/16 00:48:18;;;;;;;18.77;16.88;;;11.00;99.90;;;;;;5111255;27;20471;-81
2022/11/16 00:50:44;;;;;;;19.02;17.17;;;10.90;99.90;;;;;;5123629;27;20054;-82
2022/11/16 00:53:18;;;;;;;18.17;16.48;;;11.00;99.90;;;;;;5120599;27;20043;-81
2022/11/16 00:55:45;;;;;;;19.48;17.67;;;11.00;99.90;;;;;;5102089;27;20078;-81
2022/11/16 00:58:12;;;;;;;19.05;17.15;;;11.00;99.90;;;;;;5102377;27;20657;-80
2022/11/16 01:00:39;;;;;;;19.05;17.33;;;11.00;99.90;;;;;;5120217;27;20486;-81
2022/11/16 01:03:05;;;;;;;23.13;20.92;;;11.00;99.90;;;;;;5085555;27;20043;-80
2022/11/16 01:05:31;;;;;;;19.98;18.02;;;11.00;99.90;;;;;;5099850;27;20507;-80
2022/11/16 01:07:57;;;;;;;20.17;18.38;;;11.00;99.90;;;;;;5102006;27;20035;-79
2022/11/16 01:10:24;;;;;;;20.63;18.67;;;11.00;99.90;;;;;;5136890;27;20481;-80
2022/11/16 01:12:54;;;;;;;22.08;20.05;;;11.00;99.90;;;;;;5102915;27;20050;-80
2022/11/16 01:15:25;;;;;;;19.75;17.95;;;11.00;99.90;;;;;;5123899;27;20043;-80
2022/11/16 01:17:53;;;;;;;18.67;16.90;;;11.00;99.90;;;;;;5153887;27;20576;-80
2022/11/16 01:20:21;;;;;;;19.95;18.15;;;11.00;99.90;;;;;;5128816;27;20092;-80
2022/11/16 01:22:47;;;;;;;20.55;18.65;;;11.00;99.90;;;;;;5125034;27;20505;-79
2022/11/16 01:25:14;;;;;;;20.35;18.42;;;11.00;99.90;;;;;;5105438;27;20391;-80
2022/11/16 01:27:40;;;;;;;21.63;19.63;;;11.00;99.90;;;;;;5122940;27;20059;-80
2022/11/16 01:30:08;;;;;;;20.52;18.52;;;11.00;99.90;;;;;;5107079;27;20043;-80
2022/11/16 01:32:34;;;;;;;19.85;17.85;;;11.00;99.90;;;;;;5099175;27;20057;-80
2022/11/16 01:35:00;;;;;;;19.50;17.42;;;11.00;99.90;;;;;;5121289;27;20066;-79
2022/11/16 01:37:26;;;;;;;19.65;17.88;;;11.00;99.90;;;;;;5122348;27;20496;-79
2022/11/16 01:39:52;;;;;;;19.90;18.00;;;11.00;99.90;;;;;;5123324;27;20482;-80
2022/11/16 01:42:20;;;;;;;19.70;17.75;;;11.00;99.90;;;;;;5134597;27;20477;-79
2022/11/16 01:44:46;;;;;;;18.50;16.60;;;11.10;99.90;;;;;;5134182;27;20055;-79
2022/11/16 01:47:15;;;;;;;18.52;16.77;;;11.10;99.90;;;;;;5116896;27;20047;-80
2022/11/16 01:49:48;;;;;;;19.33;17.42;;;11.10;99.90;;;;;;5108153;27;20078;-79
2022/11/16 01:52:20;;;;;;;18.88;17.17;;;11.10;99.90;;;;;;5120229;27;20056;-79
2022/11/16 01:54:48;;;;;;;18.20;16.48;;;11.10;99.90;;;;;;5128280;27;20074;-79
2022/11/16 01:57:19;;;;;;;18.92;17.20;;;11.10;99.90;;;;;;5126761;27;20099;-79
2022/11/16 01:59:47;;;;;;;18.80;16.98;;;11.10;99.90;;;;;;5123493;27;20520;-79
2022/11/16 02:02:13;;;;;;;18.88;17.08;;;11.10;99.90;;;;;;5119082;27;20397;-80
2022/11/16 02:04:38;;;;;;;18.05;16.35;;;11.10;99.90;;;;;;5073722;27;20039;-79
2022/11/16 02:07:16;;;;;;;20.88;18.75;;;11.10;99.90;;;;;;5107036;27;20122;-79
2022/11/16 02:10:00;;;;;;;18.10;16.38;;;11.10;99.90;;;;;;5104762;27;20051;-79
2022/11/16 02:12:42;;;;;;;18.02;16.30;;;11.10;99.90;;;;;;5112772;27;20047;-79
2022/11/16 02:15:42;;;;;;;17.40;15.70;;;11.10;99.90;;;;;;5109562;27;20049;-79
2022/11/16 02:18:21;;;;;;;19.20;16.92;;;11.10;99.90;;;;;;5112490;27;20051;-79
2022/11/16 02:21:19;;;;;;;18.17;16.30;;;11.10;99.90;;;;;;5112483;27;20054;-79
2022/11/16 02:24:10;;;;;;;17.98;16.05;;;11.10;99.90;;;;;;5096393;27;20047;-79
2022/11/16 02:26:38;;;;;;;;;;;11.10;99.90;;;;;;5116592;27;20048;-79
2022/11/16 02:29:30;;;;;;;17.98;16.30;;;11.10;99.90;;;;;;5141915;27;20025;-79
2022/11/16 02:32:14;;;;;;;19.15;17.10;;;11.10;99.90;;;;;;5101353;27;20067;-79
2022/11/16 02:34:56;;;;;;;19.23;17.33;;;11.10;99.90;;;;;;5121008;27;20058;-78
2022/11/16 02:37:24;;;;;;;17.98;16.25;;;11.10;99.90;;;;;;5147763;27;20043;-78
2022/11/16 02:39:58;;;;;;;17.80;16.10;;;11.10;99.90;;;;;;5105761;27;20090;-79
2022/11/16 02:42:42;;;;;;;16.02;14.32;;;11.10;99.90;;;;;;5122865;27;20043;-79
2022/11/16 02:45:13;;;;;;;19.00;17.00;;;11.10;99.90;;;;;;5107534;27;20055;-79
2022/11/16 02:47:41;;;;;;;16.50;14.93;;;11.10;99.90;;;;;;5118503;27;20519;-79
2022/11/16 02:50:17;;;;;;;16.95;15.25;;;11.10;99.90;;;;;;5097345;27;20379;-79
2022/11/16 02:52:43;;;;;;;16.77;15.00;;;11.10;99.90;;;;;;5154776;27;20151;-79
2022/11/16 02:55:10;;;;;;;16.27;14.63;;;11.10;99.90;;;;;;5107294;27;20109;-79
2022/11/16 02:57:54;;;;;;;16.27;14.48;;;11.10;99.90;;;;;;5099533;27;20385;-79
2022/11/16 03:00:34;;;;;;;16.40;14.75;;;11.10;99.90;;;;;;5116459;27;20051;-79
2022/11/16 03:03:28;;;;;;;15.40;13.90;;;11.10;99.90;;;;;;5106860;27;20042;-79
2022/11/16 03:06:13;;;;;;;15.55;14.05;;;11.10;99.90;;;;;;5118116;27;20047;-79
2022/11/16 03:08:42;;;;;;;17.77;15.93;;;11.10;99.90;;;;;;5105181;27;20047;-80
2022/11/16 03:13:57;;;;;;;17.52;15.82;;;11.10;99.90;;;;;;5119676;27;20088;-79
2022/11/16 03:16:31;;;;;;;15.93;14.32;;;11.10;99.90;;;;;;5103482;27;20073;-79
2022/11/16 03:19:01;;;;;;;16.58;14.82;;;11.10;99.90;;;;;;5101545;27;20039;-79
2022/11/16 03:21:48;;;;;;;16.83;15.13;;;11.10;99.90;;;;;;5103711;27;20523;-79
2022/11/16 03:24:15;;;;;;;20.88;18.17;;;11.10;99.90;;;;;;5116003;27;20051;-78
2022/11/16 03:27:01;;;;;;;15.82;14.25;;;11.10;99.90;;;;;;5101911;27;20177;-79
2022/11/16 03:29:59;;;;;;;16.98;15.05;;;11.10;99.90;;;;;;5117901;27;20042;-80
2022/11/16 03:32:29;;;;;;;19.48;16.40;;;11.10;99.90;;;;;;5089803;27;20513;-79
2022/11/16 03:35:11;;;;;;;17.73;15.82;;;11.00;99.90;;;;;;5119785;27;20420;-79
2022/11/16 03:37:37;;;;;;;18.77;16.88;;;11.00;99.90;;;;;;5143795;27;20074;-79
2022/11/16 03:40:04;;;;;;;18.05;16.08;;;11.00;99.90;;;;;;5117637;27;20097;-79
2022/11/16 03:42:32;;;;;;;22.13;19.73;;;11.00;99.90;;;;;;5119675;27;20095;-78
2022/11/16 03:44:58;;;;;;;23.33;20.15;;;11.00;99.90;;;;;;5119852;27;20644;-79
2022/11/16 03:47:24;;;;;;;19.48;17.67;;;11.10;99.90;;;;;;5103470;27;20073;-79
2022/11/16 03:49:50;;;;;;;23.30;20.80;;;11.00;99.90;;;;;;5143274;27;20127;-79
2022/11/16 03:52:16;;;;;;;19.70;17.17;;;11.00;99.90;;;;;;5103662;27;20753;-79
2022/11/16 03:54:42;;;;;;;20.80;18.58;;;11.00;99.90;;;;;;5116916;27;20078;-79
2022/11/16 03:57:14;;;;;;;21.42;19.38;;;11.00;99.90;;;;;;5144673;27;20532;-79
2022/11/16 03:59:42;;;;;;;22.77;20.42;;;11.00;99.90;;;;;;5112915;27;20053;-79
2022/11/16 04:02:10;;;;;;;;;;;11.00;99.90;;;;;;5116594;27;21189;-79
2022/11/16 04:24:12;;;;;;;22.60;20.42;;;10.90;99.90;;;;;;5117220;27;20090;-78
2022/11/16 04:29:23;;;;;;;25.13;22.52;;;10.90;99.90;;;;;;5116327;27;20043;-79
2022/11/16 04:40:03;;;;;;;25.02;22.48;;;10.90;99.90;;;;;;5118106;27;20039;-79
2022/11/16 04:42:29;;;;;;;25.25;22.85;;;10.90;99.90;;;;;;5116456;27;20056;-79
2022/11/16 04:47:47;;;;;;;;;;;10.90;99.90;;;;;;5146063;27;20050;-80
2022/11/16 04:50:13;;;;;;;25.50;23.02;;;10.90;99.90;;;;;;5100361;27;19935;-79
2022/11/16 04:52:39;;;;;;;29.30;26.02;;;10.80;99.90;;;;;;5119505;27;20047;-76
2022/11/16 04:55:05;;;;;;;42.90;29.70;;;10.80;99.90;;;;;;5085328;27;20401;-75
2022/11/16 04:57:31;;;;;;;28.90;26.02;;;10.80;99.90;;;;;;5145543;27;20077;-75
2022/11/16 04:59:56;;;;;;;26.85;24.25;;;10.80;99.90;;;;;;5100607;27;20082;-75
2022/11/16 05:02:22;;;;;;;27.25;24.50;;;10.90;99.90;;;;;;5114844;27;20042;-75
2022/11/16 05:04:48;;;;;;;26.10;23.58;;;10.80;99.90;;;;;;5115412;27;20397;-75
2022/11/16 05:07:14;;;;;;;25.13;22.73;;;10.80;99.90;;;;;;5102508;27;20392;-74
2022/11/16 05:09:42;;;;;;;26.30;23.77;;;10.90;99.90;;;;;;5118537;27;20405;-74
2022/11/16 05:12:14;;;;;;;30.00;26.98;;;10.90;99.90;;;;;;5098819;27;20561;-75
2022/11/16 05:14:41;;;;;;;27.27;24.65;;;10.80;99.90;;;;;;5118806;27;20047;-75
2022/11/16 05:17:10;;;;;;;24.98;22.48;;;10.90;99.90;;;;;;5090880;27;20067;-74
2022/11/16 05:22:20;;;;;;;30.50;27.40;;;10.90;99.90;;;;;;5118818;27;20054;-75
2022/11/16 05:24:46;;;;;;;29.25;26.45;;;10.90;99.90;;;;;;5117364;27;20035;-74
2022/11/16 05:27:14;;;;;;;30.15;27.35;;;10.90;99.90;;;;;;5130977;27;20095;-78
2022/11/16 05:29:40;;;;;;;33.28;29.80;;;10.90;99.90;;;;;;5097260;27;20047;-78
2022/11/16 05:32:07;;;;;;;26.13;23.75;;;10.90;99.90;;;;;;5098482;27;20057;-78
2022/11/16 05:34:33;;;;;;;35.97;32.13;;;10.90;99.90;;;;;;5112272;27;20142;-78
2022/11/16 05:37:00;;;;;;;33.95;30.52;;;10.90;99.90;;;;;;5109267;27;20046;-78
2022/11/16 05:39:25;;;;;;;33.33;30.08;;;10.90;99.90;;;;;;5115309;27;20253;-78
2022/11/16 05:41:52;;;;;;;35.10;31.70;;;10.90;99.90;;;;;;5116214;27;20562;-77
2022/11/16 05:44:18;;;;;;;32.05;29.08;;;10.90;99.90;;;;;;5115646;27;20504;-78
2022/11/16 05:46:44;;;;;;;33.35;30.20;;;10.90;99.90;;;;;;5100635;27;20100;-78
2022/11/16 05:49:11;;;;;;;37.42;33.78;;;10.80;99.90;;;;;;5111693;27;20817;-78
2022/11/16 05:51:40;;;;;;;44.55;38.90;;;10.90;99.90;;;;;;5117558;27;20027;-77
2022/11/16 05:54:06;;;;;;;38.90;35.00;;;10.90;99.90;;;;;;5113401;27;20139;-78
2022/11/16 05:56:33;;;;;;;37.78;34.00;;;10.90;99.90;;;;;;5111957;27;20104;-78
2022/11/16 05:59:00;;;;;;;37.92;34.15;;;10.90;99.90;;;;;;5115615;27;20153;-78
2022/11/16 06:01:26;;;;;;;39.50;35.70;;;10.80;99.90;;;;;;5117025;27;21232;-77
2022/11/16 06:03:52;;;;;;;59.05;46.05;;;10.80;99.90;;;;;;5117936;27;20054;-77
2022/11/16 06:06:19;;;;;;;39.72;35.83;;;10.80;99.90;;;;;;5113210;27;20614;-76
2022/11/16 06:08:45;;;;;;;42.97;38.55;;;10.80;99.90;;;;;;5100072;27;20046;-76
2022/11/16 06:11:11;;;;;;;37.50;33.58;;;10.80;99.90;;;;;;5101337;27;20495;-76
2022/11/16 06:13:37;;;;;;;39.28;35.08;;;10.80;99.90;;;;;;5114464;27;20092;-76
2022/11/16 06:16:06;;;;;;;38.33;34.42;;;10.80;99.90;;;;;;5082672;27;20035;-76
2022/11/16 06:18:39;;;;;;;34.20;30.73;;;10.80;99.90;;;;;;5095863;27;20515;-76
2022/11/16 06:21:06;;;;;;;36.55;32.70;;;10.80;99.90;;;;;;5114568;27;20072;-76
2022/11/16 06:23:32;;;;;;;38.17;33.13;;;10.80;99.90;;;;;;5112039;27;20064;-76
2022/11/16 06:25:59;;;;;;;54.75;39.00;;;10.80;99.90;;;;;;5100044;27;20051;-75
2022/11/16 06:28:27;;;;;;;34.92;31.20;;;10.80;99.90;;;;;;5083682;27;20171;-77
2022/11/16 06:30:53;;;;;;;36.67;32.78;;;10.80;99.90;;;;;;5099851;27;20405;-76
2022/11/16 06:33:19;;;;;;;34.72;31.05;;;10.80;99.90;;;;;;5116319;27;20051;-76
2022/11/16 06:35:45;;;;;;;31.85;28.55;;;10.90;99.90;;;;;;5116624;27;20043;-77
2022/11/16 06:38:17;;;;;;;30.23;26.85;;;10.80;99.90;;;;;;5126564;27;20039;-77
2022/11/16 06:40:53;;;;;;;25.83;23.27;;;10.80;99.90;;;;;;5116771;27;20121;-77
2022/11/16 06:43:20;;;;;;;23.33;21.20;;;10.80;99.90;;;;;;5115670;27;20109;-77
2022/11/16 06:45:51;;;;;;;20.85;18.85;;;10.90;99.90;;;;;;5115302;27;20413;-77
2022/11/16 06:48:17;;;;;;;19.98;17.90;;;10.90;99.90;;;;;;5116138;27;20075;-78
2022/11/16 06:50:44;;;;;;;19.73;17.80;;;10.90;99.90;;;;;;5116755;27;20101;-77
2022/11/16 06:53:09;;;;;;;50.83;30.10;;;10.90;99.90;;;;;;5115934;27;20078;-77
2022/11/16 06:55:35;;;;;;;23.25;20.80;;;10.90;99.90;;;;;;5115844;27;20126;-77
2022/11/16 06:58:01;;;;;;;30.85;23.70;;;10.90;99.90;;;;;;5118027;27;20180;-76
2022/11/16 07:00:27;;;;;;;21.63;19.13;;;10.90;99.90;;;;;;5098848;27;20043;-77
2022/11/16 07:02:53;;;;;;;20.55;18.55;;;10.90;99.90;;;;;;5101358;27;20051;-76
2022/11/16 07:05:19;;;;;;;18.45;16.58;;;10.90;99.90;;;;;;5101004;27;20046;-77
2022/11/16 07:07:45;;;;;;;21.42;19.20;;;10.90;99.90;;;;;;5118525;27;20107;-77
2022/11/16 07:10:11;;;;;;;21.73;19.42;;;10.90;99.90;;;;;;5146637;27;20055;-77
2022/11/16 07:12:37;;;;;;;20.52;18.50;;;10.90;99.90;;;;;;5115084;27;20058;-77
2022/11/16 07:15:04;;;;;;;25.42;22.73;;;10.90;99.90;;;;;;5117610;27;20493;-77
2022/11/16 07:17:31;;;;;;;22.02;19.85;;;10.90;99.90;;;;;;5113689;27;20385;-77
2022/11/16 07:19:58;;;;;;;34.90;26.92;;;10.90;99.90;;;;;;5119042;27;20046;-77
2022/11/16 07:22:24;;;;;;;45.10;29.60;;;10.90;99.90;;;;;;5109390;27;20047;-77
2022/11/16 07:24:53;;;;;;;27.20;24.25;;;10.80;99.90;;;;;;5100096;27;20035;-78
2022/11/16 07:27:19;;;;;;;27.85;24.58;;;10.80;99.90;;;;;;5117014;27;20633;-77
2022/11/16 07:29:45;;;;;;;29.23;26.33;;;10.80;99.90;;;;;;5099154;27;20035;-78
2022/11/16 07:32:10;;;;;;;47.10;32.65;;;10.80;99.90;;;;;;5114950;27;20049;-78
2022/11/16 07:34:36;;;;;;;77.03;38.53;;;10.80;99.90;;;;;;5119493;27;20049;-78
2022/11/16 07:37:02;;;;;;;31.70;28.33;;;10.80;99.90;;;;;;5094575;27;20080;-78
2022/11/16 07:39:28;;;;;;;27.02;24.27;;;10.80;99.90;;;;;;5099695;27;20046;-78
2022/11/16 07:41:54;;;;;;;27.17;24.45;;;10.80;99.90;;;;;;5098757;27;20042;-78
2022/11/16 07:44:20;;;;;;;35.92;29.70;;;10.80;99.90;;;;;;5083706;27;20235;-78
2022/11/16 07:46:46;;;;;;;31.75;28.40;;;10.80;99.90;;;;;;5098035;27;20050;-78
2022/11/16 07:49:17;;;;;;;31.40;28.05;;;10.80;99.90;;;;;;5145942;27;20042;-78
2022/11/16 07:51:44;;;;;;;33.13;29.52;;;10.80;99.90;;;;;;5100388;27;20043;-78
2022/11/16 07:54:12;;;;;;;34.75;30.52;;;10.80;99.90;;;;;;5117110;27;20435;-78
2022/11/16 07:56:38;;;;;;;38.55;31.88;;;10.80;99.90;;;;;;5080740;27;20105;-78
2022/11/16 07:59:04;;;;;;;44.17;34.22;;;10.90;99.90;;;;;;5095336;27;20119;-78
2022/11/16 08:01:31;;;;;;;44.25;32.85;;;10.80;99.90;;;;;;5099682;27;20088;-78
2022/11/16 08:03:58;;;;;;;48.30;34.70;;;10.80;99.90;;;;;;5085458;27;20050;-78
2022/11/16 08:06:26;;;;;;;52.78;35.83;;;10.80;99.90;;;;;;5098399;27;20043;-78
2022/11/16 08:08:55;;;;;;;29.48;26.17;;;10.80;99.90;;;;;;5098697;27;20039;-78
2022/11/16 08:11:20;;;;;;;38.33;31.15;;;10.80;99.90;;;;;;5082839;27;20127;-78
2022/11/16 08:13:46;;;;;;;29.33;26.27;;;10.80;99.90;;;;;;5095515;27;20035;-78
2022/11/16 08:16:15;;;;;;;31.10;27.70;;;10.80;99.90;;;;;;5096585;27;20043;-78
2022/11/16 08:18:41;;;;;;;35.30;29.42;;;10.80;99.90;;;;;;5117862;27;20047;-78
2022/11/16 08:21:09;;;;;;;37.95;29.52;;;10.80;99.90;;;;;;5086055;27;20114;-78
2022/11/16 08:23:35;;;;;;;56.53;33.75;;;10.80;99.90;;;;;;5117049;27;20039;-79
2022/11/16 08:26:08;;;;;;;27.05;24.25;;;10.80;99.90;;;;;;5115909;27;20070;-78
2022/11/16 08:28:35;;;;;;;32.53;27.60;;;10.80;99.90;;;;;;5104470;27;20047;-78
2022/11/16 08:31:14;;;;;;;26.75;23.88;;;10.70;99.90;;;;;;5128756;27;20051;-79
2022/11/16 08:33:40;;;;;;;26.92;24.05;;;10.70;99.90;;;;;;5109197;27;20059;-78
2022/11/16 08:36:12;;;;;;;31.63;26.73;;;10.80;99.90;;;;;;5128620;27;20052;-78
2022/11/16 08:38:40;;;;;;;30.73;25.70;;;10.80;99.90;;;;;;5116928;27;20406;-78
2022/11/16 08:41:07;;;;;;;33.40;26.88;;;10.80;99.90;;;;;;5114788;27;20497;-78
2022/11/16 08:43:33;;;;;;;27.10;23.88;;;10.70;99.90;;;;;;5119337;27;20047;-78
2022/11/16 08:46:02;;;;;;;32.67;24.33;;;10.80;99.90;;;;;;5114349;27;20039;-79
2022/11/16 08:48:27;;;;;;;27.38;24.30;;;10.80;99.90;;;;;;5085185;27;20075;-78
2022/11/16 08:50:53;;;;;;;27.30;23.63;;;10.80;99.90;;;;;;5123657;27;20074;-78
2022/11/16 08:53:19;;;;;;;24.05;21.55;;;10.80;99.90;;;;;;5085423;27;20059;-79
2022/11/16 08:55:45;;;;;;;49.58;29.58;;;10.80;99.90;;;;;;5105027;27;20100;-78
2022/11/16 08:58:11;;;;;;;24.33;21.75;;;10.80;99.90;;;;;;5116635;27;20035;-78
2022/11/16 09:00:39;;;;;;;21.92;19.60;;;10.90;99.90;;;;;;5122690;27;20050;-78
2022/11/16 09:03:05;;;;;;;21.98;19.63;;;10.90;99.90;;;;;;5116789;27;20055;-78
2022/11/16 09:05:31;;;;;;;22.58;19.15;;;10.80;99.90;;;;;;5104626;27;20055;-78
2022/11/16 09:07:57;;;;;;;21.38;18.20;;;10.90;99.90;;;;;;5099980;27;20131;-78
2022/11/16 09:10:24;;;;;;;27.48;21.98;;;11.00;99.90;;;;;;5099717;27;20075;-78
2022/11/16 09:12:51;;;;;;;21.25;18.13;;;11.00;99.90;;;;;;5103620;27;20680;-78
2022/11/16 09:15:18;;;;;;;22.23;19.00;;;11.00;99.90;;;;;;5121810;27;20485;-79
2022/11/16 09:17:44;;;;;;;18.83;17.02;;;11.00;99.90;;;;;;5116214;27;20422;-79
2022/11/16 09:20:10;;;;;;;20.55;18.52;;;11.10;99.90;;;;;;5109085;27;20596;-78
2022/11/16 09:22:36;;;;;;;28.05;24.98;;;11.10;99.90;;;;;;5103753;27;20051;-79
2022/11/16 09:25:03;;;;;;;28.20;25.17;;;11.10;99.90;;;;;;5086959;27;20049;-79
2022/11/16 09:27:29;;;;;;;26.85;24.00;;;11.20;99.90;;;;;;5114533;27;20471;-79
2022/11/16 09:29:55;;;;;;;31.35;28.10;;;11.20;99.90;;;;;;5100579;27;20043;-79
2022/11/16 09:32:20;;;;;;;35.63;31.63;;;11.20;99.90;;;;;;5114704;27;20035;-79
2022/11/16 09:34:46;;;;;;;31.52;28.02;;;11.30;99.90;;;;;;5102300;27;20055;-79
2022/11/16 09:37:14;;;;;;;45.65;37.15;;;11.30;99.90;;;;;;5136114;27;20045;-79
2022/11/16 09:39:39;;;;;;;37.50;33.53;;;11.30;99.90;;;;;;5104870;27;20051;-79
2022/11/16 09:42:30;;;;;;;32.85;29.52;;;11.40;99.90;;;;;;5127243;27;20046;-74
2022/11/16 09:45:18;;;;;;;33.95;30.25;;;11.40;99.90;;;;;;5123482;27;20105;-75
2022/11/16 09:47:56;;;;;;;32.35;28.90;;;11.50;99.90;;;;;;5106830;27;20047;-74
2022/11/16 09:50:31;;;;;;;28.95;25.15;;;11.50;99.90;;;;;;5123154;27;20115;-75
2022/11/16 09:53:08;;;;;;;29.25;24.90;;;11.60;99.90;;;;;;5121143;27;20059;-75
2022/11/16 09:55:41;;;;;;;26.58;23.55;;;11.60;99.90;;;;;;5094969;27;20043;-75
2022/11/16 09:58:14;;;;;;;28.85;25.65;;;11.60;99.90;;;;;;5097746;27;20562;-74
2022/11/16 10:00:44;;;;;;;28.10;24.05;;;11.70;99.90;;;;;;5098327;27;20677;-79
2022/11/16 10:03:15;;;;;;;26.77;24.08;;;11.70;99.90;;;;;;5097788;27;20070;-79
2022/11/16 10:05:53;;;;;;;25.00;22.17;;;11.70;99.90;;;;;;5113949;27;20074;-80
2022/11/16 10:08:46;;;;;;;27.92;24.45;;;11.70;99.90;;;;;;5138292;27;20417;-79
2022/11/16 10:11:44;;;;;;;22.38;20.02;;;11.80;99.90;;;;;;5115615;27;20562;-79
2022/11/16 10:14:40;;;;;;;;;;;11.70;99.90;;;;;;5102339;27;20372;-79
2022/11/16 10:17:25;;;;;;;25.45;22.75;;;11.70;99.90;;;;;;5132209;27;19927;-79
2022/11/16 10:20:02;;;;;;;24.05;21.52;;;11.80;99.90;;;;;;5122566;27;20429;-79
2022/11/16 10:22:37;;;;;;;25.75;22.98;;;11.80;99.90;;;;;;5128295;27;20055;-75
2022/11/16 10:25:40;;;;;;;22.98;20.50;;;11.90;99.90;;;;;;5104419;27;20062;-75
2022/11/16 10:28:21;;;;;;;21.23;18.02;;;11.90;99.90;;;;;;5120097;27;20349;-80
2022/11/16 10:31:06;;;;;;;21.92;18.27;;;11.90;99.90;;;;;;5120736;27;20133;-80
2022/11/16 10:33:35;;;;;;;20.80;18.63;;;11.80;99.90;;;;;;5119309;27;20043;-80
2022/11/16 10:36:09;;;;;;;20.02;18.00;;;11.80;99.90;;;;;;5111243;27;20476;-80
2022/11/16 10:38:36;;;;;;;18.63;16.73;;;11.80;99.90;;;;;;5119094;27;20054;-81
2022/11/16 10:41:15;;;;;;;19.63;16.63;;;12.00;99.90;;;;;;5110457;27;20101;-80
2022/11/16 10:43:43;;;;;;;17.55;15.80;;;12.00;99.90;;;;;;5122529;27;20043;-80
2022/11/16 10:46:22;;;;;;;17.13;15.00;;;12.00;99.90;;;;;;5094074;27;20070;-81
2022/11/16 10:49:11;;;;;;;17.15;14.15;;;12.10;99.90;;;;;;5118053;27;20122;-80
2022/11/16 10:51:37;;;;;;;17.08;15.05;;;12.00;99.90;;;;;;5099396;27;20483;-80
2022/11/16 10:54:14;;;;;;;18.08;14.65;;;12.00;99.90;;;;;;5123673;27;20076;-81
2022/11/16 10:56:44;;;;;;;16.92;15.20;;;12.00;99.90;;;;;;5101227;27;20489;-80
2022/11/16 10:59:12;;;;;;;14.65;11.95;;;12.00;99.90;;;;;;5118805;27;20051;-80
2022/11/16 11:01:42;;;;;;;13.77;11.73;;;12.00;99.90;;;;;;5125482;27;20524;-80
2022/11/16 11:04:12;;;;;;;;;;;11.90;99.90;;;;;;5116491;27;20058;-81
2022/11/16 11:06:39;;;;;;;12.63;9.57;;;11.90;99.90;;;;;;5108119;27;20366;-80
2022/11/16 11:09:29;;;;;;;12.88;10.10;;;11.90;99.90;;;;;;5145252;27;20050;-81
2022/11/16 11:15:00;;;;;;;11.18;8.23;;;11.80;99.90;;;;;;5111910;27;20039;-82
2022/11/16 11:17:26;;;;;;;9.90;7.65;;;11.80;99.90;;;;;;5112432;27;20509;-81
2022/11/16 11:20:22;;;;;;;12.20;8.85;;;11.80;99.90;;;;;;5119695;27;20038;-81
2022/11/16 11:22:53;;;;;;;10.95;7.88;;;11.70;99.90;;;;;;5114688;27;20141;-82
2022/11/16 11:25:24;;;;;;;13.88;8.48;;;11.70;99.90;;;;;;5112490;27;20117;-82
2022/11/16 11:28:06;;;;;;;12.75;8.40;;;11.60;99.90;;;;;;5096833;27;20047;-82
2022/11/16 11:30:33;;;;;;;11.75;7.97;;;11.70;99.90;;;;;;5098162;27;20044;-82
2022/11/16 11:32:59;;;;;;;13.15;7.50;;;11.70;99.90;;;;;;5121490;27;20075;-82
2022/11/16 11:35:33;;;;;;;12.07;7.68;;;11.70;99.90;;;;;;5116629;27;20172;-82
2022/11/16 11:38:03;;;;;;;8.38;5.65;;;11.80;99.90;;;;;;5113440;27;20242;-82
2022/11/16 11:40:31;;;;;;;10.45;5.20;;;11.90;99.90;;;;;;5116372;27;20043;-83
2022/11/16 11:43:21;;;;;;;8.30;5.07;;;12.00;99.90;;;;;;5113810;27;20361;-82
2022/11/16 11:46:26;;;;;;;10.57;5.60;;;12.00;99.90;;;;;;5113935;27;20053;-83
2022/11/16 11:49:26;;;;;;;9.50;4.75;;;12.00;99.90;;;;;;5101126;27;20047;-82
2022/11/16 11:51:57;;;;;;;11.45;4.85;;;12.10;99.90;;;;;;5127324;27;20044;-83
2022/11/16 11:54:30;;;;;;;8.50;3.85;;;12.10;99.90;;;;;;5124123;27;20107;-83
2022/11/16 11:56:56;;;;;;;8.23;3.67;;;12.10;99.90;;;;;;5114800;27;20598;-83
2022/11/16 11:59:24;;;;;;;8.75;3.80;;;12.10;99.90;;;;;;5116309;27;20042;-83
2022/11/16 12:02:22;;;;;;;10.50;3.97;;;12.00;99.90;;;;;;5118268;27;20051;-84
2022/11/16 12:05:27;;;;;;;11.00;3.92;;;12.10;99.90;;;;;;5115143;27;20123;-83
2022/11/16 12:08:23;;;;;;;9.95;3.53;;;12.10;99.90;;;;;;5112737;27;20561;-83
2022/11/16 12:11:10;;;;;;;9.60;3.92;;;12.10;99.90;;;;;;5119470;27;20160;-84
2022/11/16 12:13:57;;;;;;;10.30;4.40;;;12.10;99.90;;;;;;5113066;27;20876;-84
2022/11/16 12:16:36;;;;;;;10.60;3.88;;;12.10;99.90;;;;;;5117057;27;20073;-83
2022/11/16 12:19:30;;;;;;;11.95;4.07;;;12.10;99.90;;;;;;5116199;27;20057;-84
2022/11/16 12:22:13;;;;;;;12.95;3.90;;;12.00;99.90;;;;;;5113358;27;20076;-84
2022/11/16 12:25:06;;;;;;;11.60;4.18;;;12.00;99.90;;;;;;5114097;27;20043;-84
2022/11/16 12:27:42;;;;;;;13.27;3.10;;;12.00;99.90;;;;;;5114244;27;20466;-83
2022/11/16 12:30:16;;;;;;;11.20;3.75;;;12.00;99.90;;;;;;5121111;27;20043;-83
2022/11/16 12:33:08;;;;;;;11.27;3.28;;;12.00;99.90;;;;;;5116797;27;20048;-83
2022/11/16 12:35:44;;;;;;;8.65;2.90;;;11.90;99.90;;;;;;5111497;27;20145;-75
2022/11/16 12:38:23;;;;;;;8.60;3.22;;;11.90;99.90;;;;;;5113974;27;20046;-74
2022/11/16 12:41:22;;;;;;;10.70;3.00;;;11.90;99.90;;;;;;5114350;27;20059;-75
2022/11/16 12:44:08;;;;;;;10.60;2.83;;;12.00;99.90;;;;;;5113834;27;20074;-75
2022/11/16 12:47:00;;;;;;;8.93;2.75;;;12.00;99.90;;;;;;5118419;27;20120;-75
2022/11/16 12:49:55;;;;;;;12.25;2.75;;;12.00;99.90;;;;;;5118683;27;20051;-75
2022/11/16 12:53:05;;;;;;;8.25;2.60;;;11.90;99.90;;;;;;5099980;27;20130;-84
2022/11/16 12:55:43;;;;;;;7.43;2.97;;;12.00;99.90;;;;;;5094226;27;20415;-83
2022/11/16 12:58:24;;;;;;;12.23;3.10;;;11.90;99.90;;;;;;5113098;27;20061;-84
2022/11/16 13:01:24;;;;;;;9.13;3.22;;;12.00;99.90;;;;;;5095101;27;20055;-83
2022/11/16 13:04:11;;;;;;;8.95;2.50;;;11.90;99.90;;;;;;5108512;27;20038;-84
2022/11/16 13:06:55;;;;;;;10.20;3.47;;;11.90;99.90;;;;;;5114594;27;20050;-83
2022/11/16 13:09:26;;;;;;;10.27;3.40;;;11.80;99.90;;;;;;5118209;27;20047;-84
2022/11/16 13:11:59;;;;;;;12.38;3.75;;;11.80;99.90;;;;;;5128886;27;20038;-84
2022/11/16 13:14:31;;;;;;;9.63;3.05;;;11.80;99.90;;;;;;5115949;27;20051;-84
2022/11/16 13:17:00;;;;;;;11.35;3.60;;;11.80;99.90;;;;;;5106338;27;20505;-83
2022/11/16 13:19:27;;;;;;;12.82;3.25;;;11.80;99.90;;;;;;5101537;27;20235;-84
2022/11/16 13:22:12;;;;;;;11.55;3.42;;;11.70;99.90;;;;;;5065850;27;20040;-83
2022/11/16 13:24:53;;;;;;;11.27;3.38;;;11.80;99.90;;;;;;5152268;27;20051;-83
2022/11/16 13:27:33;;;;;;;8.55;3.60;;;11.80;99.90;;;;;;5121122;27;20046;-84
2022/11/16 13:30:20;;;;;;;13.65;3.67;;;11.90;99.90;;;;;;5113674;27;20046;-84
2022/11/16 13:32:46;;;;;;;9.98;3.20;;;11.90;99.90;;;;;;5115904;27;20054;-84
2022/11/16 13:35:16;;;;;;;9.98;2.88;;;12.00;99.90;;;;;;5126302;27;20043;-84
2022/11/16 13:37:46;;;;;;;;;;;12.00;99.90;;;;;;5117542;27;20051;-84